Time;durP1;ratioP1;P1;durP2;ratioP2;P2;SDS_P1;SDS_P2;PMS_P1;PMS_P2;Temp;Humidity;BMP_temperature;BMP_pressure;BME280_temperature;BME280_humidity;BME280_pressure;Samples;Min_cycle;Max_cycle;Signal;HPM_P1;HPM_P2
2022/06/21 00:01:25;;;;;;;8.30;3.50;;;;;;;11.69;88.94;100426.94;5042247;28;20041;-72
2022/06/21 00:03:52;;;;;;;9.63;3.80;;;;;;;11.68;88.75;100425.19;5043255;28;20034;-72
2022/06/21 00:06:20;;;;;;;7.05;3.63;;;;;;;11.68;88.21;100433.13;5046120;28;20391;-72
2022/06/21 00:08:46;;;;;;;6.68;3.25;;;;;;;11.68;87.72;100429.59;5042732;28;20128;-72
2022/06/21 00:11:21;;;;;;;7.05;3.15;;;;;;;11.66;87.68;100434.94;5044070;28;20141;-72
2022/06/21 00:13:47;;;;;;;5.40;3.30;;;;;;;11.57;88.16;100443.81;5045263;28;20104;-72
2022/06/21 00:16:14;;;;;;;7.90;3.15;;;;;;;11.52;87.92;100439.50;5041960;28;20037;-72
2022/06/21 00:18:42;;;;;;;7.45;2.78;;;;;;;11.53;87.41;100435.97;5043613;28;20103;-72
2022/06/21 00:21:14;;;;;;;6.25;3.10;;;;;;;11.52;87.47;100442.13;5043135;28;20025;-72
2022/06/21 00:23:40;;;;;;;6.72;2.90;;;;;;;11.48;87.62;100437.78;5042222;28;20136;-72
2022/06/21 00:26:12;;;;;;;7.53;2.95;;;;;;;11.47;87.41;100441.31;5045463;28;20117;-72
2022/06/21 00:28:38;;;;;;;11.30;6.65;;;;;;;11.40;87.23;100449.31;5043229;28;20037;-72
2022/06/21 00:31:09;;;;;;;6.45;3.40;;;;;;;11.36;87.09;100444.06;5041935;28;20028;-73
2022/06/21 00:33:35;;;;;;;6.90;3.10;;;;;;;11.33;86.95;100444.97;5043635;28;20041;-72
2022/06/21 00:36:03;;;;;;;7.05;3.10;;;;;;;11.27;86.49;100449.47;5042646;28;20350;-72
2022/06/21 00:38:32;;;;;;;8.68;2.85;;;;;;;11.23;87.39;100455.66;5043860;28;20112;-72
2022/06/21 00:41:01;;;;;;;5.60;2.70;;;;;;;11.22;86.84;100449.50;5043378;28;20037;-72
2022/06/21 00:43:29;;;;;;;6.30;3.03;;;;;;;11.18;87.08;100453.91;5041695;28;20030;-73
2022/06/21 00:45:55;;;;;;;7.13;2.70;;;;;;;11.12;87.04;100458.41;5038536;28;20068;-72
2022/06/21 00:48:31;;;;;;;5.40;2.88;;;;;;;11.11;86.46;100459.31;5034254;28;20061;-72
2022/06/21 00:51:06;;;;;;;4.80;2.70;;;;;;;11.09;86.28;100458.44;5039973;28;20079;-72
2022/06/21 00:53:38;;;;;;;8.63;3.13;;;;;;;11.00;87.13;100461.16;5039216;28;20132;-72
2022/06/21 00:56:13;;;;;;;5.93;2.92;;;;;;;10.90;87.21;100469.16;5042239;28;20034;-72
2022/06/21 00:58:39;;;;;;;7.43;3.20;;;;;;;10.79;87.69;100476.28;5037729;28;20446;-72
2022/06/21 01:01:13;;;;;;;9.15;3.00;;;;;;;10.75;86.78;100482.50;5041862;28;20064;-72
2022/06/21 01:03:46;;;;;;;5.95;3.08;;;;;;;10.68;86.85;100473.72;5041575;28;20076;-72
2022/06/21 01:06:17;;;;;;;7.68;2.85;;;;;;;10.65;86.84;100471.13;5039324;28;20124;-72
2022/06/21 01:08:47;;;;;;;5.82;2.53;;;;;;;10.63;87.15;100467.59;5042404;28;20087;-72
2022/06/21 01:11:21;;;;;;;5.05;2.83;;;;;;;10.64;86.95;100474.66;5042928;28;20045;-72
2022/06/21 01:13:50;;;;;;;4.68;2.65;;;;;;;10.63;87.17;100467.59;5042403;28;20123;-72
2022/06/21 01:16:16;;;;;;;4.75;2.90;;;;;;;10.60;86.98;100470.28;5041699;28;20041;-72
2022/06/21 01:18:43;;;;;;;6.30;2.58;;;;;;;10.61;86.85;100473.78;5044122;28;20525;-72
2022/06/21 01:21:13;;;;;;;4.85;2.85;;;;;;;10.61;85.98;100465.84;5008759;28;20091;-72
2022/06/21 01:24:05;;;;;;;8.13;2.80;;;;;;;10.60;85.87;100469.41;5043055;28;20045;-72
2022/06/21 01:26:50;;;;;;;4.80;2.47;;;;;;;10.58;85.22;100469.41;5040469;28;20140;-72
2022/06/21 01:29:19;;;;;;;6.18;2.67;;;;;;;10.56;85.53;100467.66;5037707;28;20095;-72
2022/06/21 01:31:45;;;;;;;4.93;2.50;;;;;;;10.55;85.35;100472.06;5040949;28;20051;-72
2022/06/21 01:34:18;;;;;;;5.95;2.67;;;;;;;10.56;85.02;100478.22;5043517;28;20036;-72
2022/06/21 01:36:46;;;;;;;5.05;2.33;;;;;;;10.50;85.72;100471.22;5037784;28;20045;-72
2022/06/21 01:39:22;;;;;;;6.05;2.40;;;;;;;10.48;86.01;100467.75;5042452;28;20044;-72
2022/06/21 01:42:00;;;;;;;6.07;2.90;;;;;;;10.49;86.30;100465.06;5042129;28;20037;-72
2022/06/21 01:44:31;;;;;;;5.72;2.75;;;;;;;10.48;85.89;100468.59;5042498;28;20045;-72
2022/06/21 01:47:00;;;;;;;4.70;2.85;;;;;;;10.49;86.47;100466.84;5040396;28;20116;-72
2022/06/21 01:49:28;;;;;;;8.10;2.55;;;;;;;10.49;86.01;100465.06;5037810;28;20083;-72
2022/06/21 01:52:04;;;;;;;6.70;3.13;;;;;;;10.51;86.29;100473.84;5016737;28;20037;-72
2022/06/21 01:54:38;;;;;;;5.15;3.60;;;;;;;10.47;86.21;100466.84;5043720;28;20028;-72
2022/06/21 01:57:06;;;;;;;5.32;2.83;;;;;;;10.44;86.22;100474.78;5041669;28;20038;-72
2022/06/21 01:59:38;;;;;;;6.00;3.05;;;;;;;10.46;86.56;100470.38;5041100;28;20053;-72
2022/06/21 02:02:08;;;;;;;5.47;2.92;;;;;;;10.47;86.88;100471.25;5034497;28;20064;-72
2022/06/21 02:04:41;;;;;;;5.20;3.00;;;;;;;10.46;86.60;100465.09;5041750;28;20561;-72
2022/06/21 02:07:10;;;;;;;7.22;3.20;;;;;;;10.46;85.99;100466.88;5042887;28;20024;-72
2022/06/21 02:09:47;;;;;;;6.72;2.90;;;;;;;10.42;86.00;100473.03;5036541;28;20033;-72
2022/06/21 02:12:14;;;;;;;5.53;2.92;;;;;;;10.40;86.48;100474.81;5040657;28;20049;-72
2022/06/21 02:14:45;;;;;;;6.93;3.25;;;;;;;10.44;86.65;100473.91;5041584;28;20032;-72
2022/06/21 02:17:34;;;;;;;7.47;3.20;;;;;;;10.38;86.14;100474.84;5036834;28;20551;-72
2022/06/21 02:20:24;;;;;;;7.90;3.35;;;;;;;10.34;86.50;100465.16;5037006;28;20041;-72
2022/06/21 02:22:50;;;;;;;7.75;3.15;;;;;;;10.29;86.60;100477.50;5036720;28;20511;-72
2022/06/21 02:25:19;;;;;;;6.80;3.20;;;;;;;10.25;87.13;100476.63;5041817;28;20116;-72
2022/06/21 02:27:45;;;;;;;7.72;2.95;;;;;;;10.25;86.93;100481.91;5042056;28;20411;-72
2022/06/21 02:30:24;;;;;;;6.88;2.78;;;;;;;10.27;86.46;100480.16;5040310;28;20052;-72
2022/06/21 02:32:53;;;;;;;6.78;3.10;;;;;;;10.27;86.68;100477.53;5040219;28;20037;-72
2022/06/21 02:35:25;;;;;;;7.15;3.15;;;;;;;10.23;86.85;100480.16;5040463;28;20084;-72
2022/06/21 02:37:53;;;;;;;6.93;3.10;;;;;;;10.18;86.66;100479.31;5036168;28;20041;-73
2022/06/21 02:40:23;;;;;;;8.02;3.20;;;;;;;10.19;86.50;100483.69;5041458;28;20062;-72
2022/06/21 02:42:52;;;;;;;7.40;3.65;;;;;;;10.22;86.04;100486.31;5041391;28;20041;-72
2022/06/21 02:45:27;;;;;;;5.22;3.05;;;;;;;10.23;86.47;100486.31;5039585;28;20113;-72
2022/06/21 02:47:56;;;;;;;8.65;4.07;;;;;;;10.25;85.85;100487.19;5041034;28;20041;-72
2022/06/21 02:50:36;;;;;;;7.03;3.25;;;;;;;10.25;86.48;100491.59;5041928;28;20064;-72
2022/06/21 02:53:06;;;;;;;7.22;3.25;;;;;;;10.27;85.78;100492.44;5037587;28;20033;-72
2022/06/21 02:55:44;;;;;;;7.45;2.92;;;;;;;10.27;85.64;100495.06;5036041;28;20385;-72
2022/06/21 02:58:16;;;;;;;7.28;3.65;;;;;;;10.28;85.51;100499.50;5035260;28;20026;-72
2022/06/21 03:00:42;;;;;;;6.50;3.35;;;;;;;10.30;85.46;100495.97;5033136;28;20044;-72
2022/06/21 03:03:16;;;;;;;7.85;3.00;;;;;;;10.30;85.79;100495.09;5031336;28;20029;-72
2022/06/21 03:05:42;;;;;;;7.40;3.42;;;;;;;10.31;85.28;100497.72;5036284;28;20407;-72
2022/06/21 03:08:08;;;;;;;9.15;3.58;;;;;;;10.26;85.92;100485.41;5040956;28;20021;-72
2022/06/21 03:10:40;;;;;;;6.78;3.15;;;;;;;10.25;86.27;100494.22;5040173;28;20037;-72
2022/06/21 03:13:16;;;;;;;7.45;3.85;;;;;;;10.24;86.76;100485.44;5037331;28;20073;-73
2022/06/21 03:15:44;;;;;;;7.45;3.92;;;;;;;10.24;86.71;100493.34;5041452;28;20037;-73
2022/06/21 03:18:13;;;;;;;7.20;3.45;;;;;;;10.28;86.39;100481.91;5043061;28;20491;-73
2022/06/21 03:20:40;;;;;;;10.18;3.65;;;;;;;10.33;85.80;100481.91;5039820;28;20584;-73
2022/06/21 03:23:06;;;;;;;9.45;4.13;;;;;;;10.33;85.79;100486.31;5044748;28;20123;-72
2022/06/21 03:25:48;;;;;;;7.05;3.50;;;;;;;10.34;86.35;100481.00;5045079;28;20112;-72
2022/06/21 03:28:33;;;;;;;7.22;3.35;;;;;;;10.37;85.73;100469.56;5040697;28;20060;-72
2022/06/21 03:31:23;;;;;;;7.18;3.63;;;;;;;10.40;85.45;100469.53;5038738;28;20061;-72
2022/06/21 03:33:53;;;;;;;9.93;3.50;;;;;;;10.40;85.33;100462.50;5039326;28;20128;-72
2022/06/21 03:36:22;;;;;;;7.90;3.60;;;;;;;10.47;85.40;100465.97;5044930;28;20048;-72
2022/06/21 03:38:53;;;;;;;9.18;4.15;;;;;;;10.51;85.42;100471.22;5045408;28;20044;-72
2022/06/21 03:44:28;;;;;;;6.93;3.55;;;;;;;10.57;84.94;100482.63;5042926;28;20130;-73
2022/06/21 03:47:09;;;;;;;8.10;3.28;;;;;;;10.59;85.07;100484.38;5045345;28;20025;-72
2022/06/21 03:49:42;;;;;;;8.80;3.75;;;;;;;10.70;85.05;100494.84;5032121;28;20041;-72
2022/06/21 03:52:15;;;;;;;12.98;5.97;;;;;;;10.75;85.42;100490.41;5039641;28;20095;-72
2022/06/21 03:54:49;;;;;;;9.55;4.55;;;;;;;10.80;85.01;100491.25;5044412;28;20037;-74
2022/06/21 03:57:21;;;;;;;9.77;4.45;;;;;;;10.91;84.23;100493.81;5045885;28;20646;-72
2022/06/21 03:59:57;;;;;;;8.13;3.72;;;;;;;11.00;84.02;100495.47;5043758;28;20117;-73
2022/06/21 04:02:31;;;;;;;8.85;3.92;;;;;;;11.03;83.31;100504.28;5042005;28;20064;-72
2022/06/21 04:05:06;;;;;;;9.75;3.60;;;;;;;11.07;84.03;100502.47;5040443;28;20665;-72
2022/06/21 04:07:38;;;;;;;7.45;3.45;;;;;;;11.12;83.94;100500.66;5042897;28;20029;-72
2022/06/21 04:10:16;;;;;;;7.82;3.50;;;;;;;11.20;83.46;100504.13;5039742;28;20095;-72
2022/06/21 04:12:52;;;;;;;9.88;3.75;;;;;;;11.26;83.79;100511.09;5042403;28;20095;-73
2022/06/21 04:15:29;;;;;;;9.80;3.80;;;;;;;11.33;83.78;100513.66;5040471;28;20037;-72
2022/06/21 04:17:57;;;;;;;8.07;4.18;;;;;;;11.32;83.89;100513.72;5041877;28;20053;-72
2022/06/21 04:20:33;;;;;;;5.25;3.67;;;;;;;11.39;83.67;100513.59;5038956;28;20377;-72
2022/06/21 04:23:09;;;;;;;7.95;4.57;;;;;;;11.47;83.28;100516.16;5042619;28;20551;-72
2022/06/21 04:25:52;;;;;;;11.65;6.30;;;;;;;11.57;82.71;100524.88;5039334;28;20373;-72
2022/06/21 04:28:25;;;;;;;9.18;5.22;;;;;;;11.66;82.62;100524.81;5041034;28;20095;-73
2022/06/21 04:31:04;;;;;;;8.75;4.05;;;;;;;11.69;82.66;100532.69;5042454;28;20084;-72
2022/06/21 04:34:01;;;;;;;9.05;3.35;;;;;;;11.75;81.79;100527.34;5043716;28;20553;-72
2022/06/21 04:36:36;;;;;;;5.80;3.30;;;;;;;11.85;81.67;100529.00;5038262;28;20054;-72
2022/06/21 04:39:14;;;;;;;8.75;3.30;;;;;;;11.97;80.97;100535.94;5042570;28;20095;-73
2022/06/21 04:41:59;;;;;;;6.60;3.95;;;;;;;12.11;81.09;100541.06;5039320;28;20031;-72
2022/06/21 04:44:45;;;;;;;8.68;4.10;;;;;;;12.13;81.24;100527.81;5038663;28;20497;-72
2022/06/21 04:47:25;;;;;;;8.07;3.20;;;;;;;12.18;81.14;100528.63;5037738;28;20041;-73
2022/06/21 04:50:00;;;;;;;7.95;2.97;;;;;;;12.24;81.00;100532.06;5042160;28;20053;-72
2022/06/21 04:52:35;;;;;;;8.60;3.55;;;;;;;12.31;80.97;100529.34;5038751;28;20041;-73
2022/06/21 04:55:03;;;;;;;8.98;3.70;;;;;;;12.33;81.19;100522.25;5042461;28;20042;-73
2022/06/21 04:57:31;;;;;;;8.27;3.53;;;;;;;12.42;80.43;100516.88;5038098;28;20121;-72
2022/06/21 05:00:03;;;;;;;11.88;5.03;;;;;;;12.53;80.91;100514.06;5042211;28;20034;-72
2022/06/21 05:02:36;;;;;;;6.50;2.77;;;;;;;12.61;80.20;100504.22;5041798;28;20519;-72
2022/06/21 05:05:10;;;;;;;9.27;3.50;;;;;;;12.76;79.96;100503.09;5044968;28;20036;-72
2022/06/21 05:07:49;;;;;;;11.32;3.78;;;;;;;12.83;79.68;100518.00;5042950;28;20044;-73
2022/06/21 05:10:19;;;;;;;9.88;4.00;;;;;;;12.91;79.87;100522.28;5038007;28;20128;-73
2022/06/21 05:12:47;;;;;;;10.40;3.10;;;;;;;13.10;78.88;100524.66;5042530;28;20514;-72
2022/06/21 05:15:20;;;;;;;7.90;3.47;;;;;;;13.18;77.74;100527.16;5043600;28;20082;-73
2022/06/21 05:17:52;;;;;;;9.50;3.10;;;;;;;13.24;77.73;100527.94;5031635;28;20412;-72
2022/06/21 05:20:22;;;;;;;12.45;3.30;;;;;;;13.25;76.92;100534.09;5042695;28;20048;-73
2022/06/21 05:22:52;;;;;;;10.98;3.70;;;;;;;13.33;78.03;100532.22;5041449;28;20045;-72
2022/06/21 05:25:27;;;;;;;9.70;3.22;;;;;;;13.43;77.06;100536.47;5037745;28;20033;-72
2022/06/21 05:27:59;;;;;;;7.10;2.88;;;;;;;13.48;76.53;100536.38;5042046;28;20100;-73
2022/06/21 05:30:47;;;;;;;7.55;3.67;;;;;;;13.59;76.95;100545.00;5044248;28;20118;-72
2022/06/21 05:33:32;;;;;;;7.25;3.17;;;;;;;13.63;76.39;100543.19;5043228;28;20044;-72
2022/06/21 05:35:59;;;;;;;10.30;2.80;;;;;;;13.68;76.12;100538.69;5043736;28;20037;-72
2022/06/21 05:38:30;;;;;;;11.20;3.60;;;;;;;13.73;76.39;100547.44;5040375;28;20086;-72
2022/06/21 05:41:29;;;;;;;7.55;2.90;;;;;;;13.81;76.82;100556.13;5040148;28;20095;-73
2022/06/21 05:43:59;;;;;;;8.57;3.47;;;;;;;13.92;75.60;100548.81;5040592;28;20091;-73
2022/06/21 05:46:28;;;;;;;9.65;3.20;;;;;;;13.99;76.25;100555.75;5039044;28;20037;-73
2022/06/21 05:48:56;;;;;;;7.40;3.40;;;;;;;14.13;74.78;100552.81;5043014;28;20017;-72
2022/06/21 05:51:27;;;;;;;7.28;3.00;;;;;;;14.16;73.98;100555.41;5041538;28;20040;-72
2022/06/21 05:54:06;;;;;;;10.05;3.22;;;;;;;14.14;74.86;100543.06;5040544;28;20037;-72
2022/06/21 05:56:34;;;;;;;13.63;3.17;;;;;;;14.21;74.13;100544.69;5039948;28;20044;-72
2022/06/21 05:59:06;;;;;;;12.43;2.92;;;;;;;14.22;73.46;100549.94;5040756;28;20079;-72
2022/06/21 06:01:59;;;;;;;7.55;3.22;;;;;;;14.24;73.14;100556.13;5036266;28;20044;-72
2022/06/21 06:04:33;;;;;;;6.15;2.40;;;;;;;14.45;73.54;100549.47;5038049;28;20041;-72
2022/06/21 06:07:01;;;;;;;6.68;2.65;;;;;;;14.55;72.94;100549.31;5040867;28;20034;-72
2022/06/21 06:09:34;;;;;;;9.85;2.92;;;;;;;14.51;71.79;100543.16;5043232;28;20152;-73
2022/06/21 06:12:10;;;;;;;6.90;2.72;;;;;;;14.62;71.52;100545.63;5040834;28;20033;-72
2022/06/21 06:14:49;;;;;;;10.07;2.92;;;;;;;14.74;72.67;100555.94;5038601;28;20033;-72
2022/06/21 06:17:20;;;;;;;6.97;2.75;;;;;;;14.78;71.70;100547.00;5040994;28;20041;-73
2022/06/21 06:19:54;;;;;;;8.40;2.72;;;;;;;14.82;70.20;100559.31;5043361;28;20045;-72
2022/06/21 06:22:27;;;;;;;7.03;2.38;;;;;;;14.77;70.11;100555.00;5040524;28;20044;-73
2022/06/21 06:24:55;;;;;;;7.50;2.70;;;;;;;14.76;70.57;100545.31;5040300;28;20116;-72
2022/06/21 06:27:30;;;;;;;7.78;3.05;;;;;;;14.75;70.44;100552.41;5036069;28;20037;-72
2022/06/21 06:30:01;;;;;;;7.53;2.47;;;;;;;14.79;69.65;100553.19;5041612;28;20418;-73
2022/06/21 06:32:36;;;;;;;8.55;2.45;;;;;;;14.83;70.50;100550.44;5038929;28;20368;-73
2022/06/21 06:35:02;;;;;;;11.70;2.85;;;;;;;15.05;68.79;100549.91;5041288;28;20411;-73
2022/06/21 06:37:41;;;;;;;7.60;2.13;;;;;;;15.20;68.20;100557.53;5040959;28;20051;-72
2022/06/21 06:40:17;;;;;;;12.10;2.63;;;;;;;15.20;68.56;100548.69;5035894;28;20451;-74
2022/06/21 06:42:44;;;;;;;8.30;1.90;;;;;;;15.31;67.40;100552.81;5039655;28;20400;-72
2022/06/21 06:45:14;;;;;;;7.45;2.15;;;;;;;15.52;66.98;100561.16;5042473;28;20028;-73
2022/06/21 06:47:55;;;;;;;7.57;2.50;;;;;;;15.63;66.51;100564.38;5036858;28;20132;-73
2022/06/21 06:50:42;;;;;;;8.80;2.60;;;;;;;15.89;65.46;100563.72;5037708;28;20050;-73
2022/06/21 06:53:31;;;;;;;9.63;2.20;;;;;;;16.10;64.52;100559.59;5038781;28;20045;-73
2022/06/21 06:56:00;;;;;;;5.35;2.40;;;;;;;16.18;64.61;100559.38;5040612;28;20076;-73
2022/06/21 06:58:32;;;;;;;8.57;2.58;;;;;;;16.26;64.41;100567.13;5036087;28;20042;-72
2022/06/21 07:01:25;;;;;;;7.77;2.90;;;;;;;16.24;63.72;100571.63;5033465;28;20044;-72
2022/06/21 07:03:58;;;;;;;6.43;2.60;;;;;;;16.19;63.91;100562.00;5039153;28;20295;-73
2022/06/21 07:06:39;;;;;;;12.35;4.72;;;;;;;16.27;64.48;100563.53;5038593;28;20385;-73
2022/06/21 07:09:29;;;;;;;9.85;3.20;;;;;;;16.46;62.85;100553.25;5039892;28;20515;-72
2022/06/21 07:12:07;;;;;;;8.35;4.18;;;;;;;16.73;63.57;100549.72;5040678;28;20039;-73
2022/06/21 07:14:34;;;;;;;11.70;3.50;;;;;;;17.08;62.31;100547.75;5038015;28;20527;-72
2022/06/21 07:17:12;;;;;;;9.20;2.85;;;;;;;17.26;60.66;100556.94;5040093;28;20510;-73
2022/06/21 07:19:38;;;;;;;6.53;2.70;;;;;;;17.42;59.85;100542.19;5036654;28;20044;-72
2022/06/21 07:22:14;;;;;;;5.32;1.85;;;;;;;17.26;59.17;100546.25;5040657;28;20037;-73
2022/06/21 07:24:43;;;;;;;5.78;1.92;;;;;;;17.20;58.90;100550.00;5038796;28;20115;-73
2022/06/21 07:27:14;;;;;;;5.22;2.20;;;;;;;17.16;60.14;100545.72;5036241;28;20472;-72
2022/06/21 07:29:56;;;;;;;6.25;2.15;;;;;;;17.21;60.56;100551.78;5040663;28;20035;-73
2022/06/21 07:32:29;;;;;;;12.23;2.53;;;;;;;17.30;59.34;100550.59;5036215;28;20056;-72
2022/06/21 07:35:07;;;;;;;8.07;2.45;;;;;;;17.37;59.94;100552.13;5038841;28;20124;-73
2022/06/21 07:37:37;;;;;;;4.32;1.58;;;;;;;17.66;59.02;100552.94;5036889;28;20451;-73
2022/06/21 07:40:16;;;;;;;5.72;2.15;;;;;;;17.80;59.26;100550.66;5040314;28;20071;-72
2022/06/21 07:42:49;;;;;;;6.00;2.13;;;;;;;18.03;57.04;100543.63;5049178;28;20041;-72
2022/06/21 07:45:21;;;;;;;8.10;2.20;;;;;;;17.78;57.01;100549.81;5039959;28;20499;-72
2022/06/21 07:48:04;;;;;;;7.28;2.85;;;;;;;17.71;57.75;100551.84;5040783;28;20083;-72
2022/06/21 07:50:42;;;;;;;7.32;2.08;;;;;;;17.39;58.36;100549.41;5041638;28;20037;-72
2022/06/21 07:53:33;;;;;;;8.68;1.85;;;;;;;17.42;58.42;100547.50;5036581;28;20068;-73
2022/06/21 07:56:14;;;;;;;5.33;1.43;;;;;;;17.42;56.87;100539.50;5038418;28;20039;-73
2022/06/21 07:58:55;;;;;;;8.80;3.38;;;;;;;17.75;56.49;100541.91;5035811;28;20136;-72
2022/06/21 08:07:26;;;;;;;6.45;2.17;;;;;;;18.04;57.22;100540.00;5044387;28;20036;-73
2022/06/21 08:10:04;;;;;;;7.15;1.80;;;;;;;18.01;55.98;100543.66;5042621;28;20443;-73
2022/06/21 08:12:30;;;;;;;6.10;2.30;;;;;;;18.06;56.77;100538.16;5042928;28;20107;-73
2022/06/21 08:14:55;;;;;;;6.72;2.55;;;;;;;18.30;56.04;100545.25;5045093;28;20048;-73
2022/06/21 08:17:34;;;;;;;8.25;2.33;;;;;;;18.62;53.99;100543.13;5041885;28;20033;-73
2022/06/21 08:20:27;;;;;;;6.72;2.00;;;;;;;18.71;54.62;100556.16;5042332;28;20060;-73
2022/06/21 08:23:28;;;;;;;7.93;1.85;;;;;;;18.45;53.18;100548.28;5042490;28;20555;-73
2022/06/21 08:25:59;;;;;;;5.15;2.03;;;;;;;18.31;54.40;100546.13;5038241;28;20136;-72
2022/06/21 08:28:36;;;;;;;6.43;1.70;;;;;;;18.47;53.76;100535.72;5043909;28;20086;-73
2022/06/21 08:31:09;;;;;;;5.97;2.35;;;;;;;18.59;53.79;100540.59;5044803;28;20048;-73
2022/06/21 08:33:42;;;;;;;6.68;2.30;;;;;;;18.43;54.06;100547.47;5043026;28;20036;-73
2022/06/21 08:36:16;;;;;;;8.85;2.20;;;;;;;18.52;53.69;100549.78;5042285;28;20048;-73
2022/06/21 08:38:48;;;;;;;8.20;2.95;;;;;;;18.66;53.25;100552.78;5038516;28;20033;-73
2022/06/21 08:41:54;;;;;;;8.60;2.53;;;;;;;18.64;53.75;100559.13;5042342;28;20103;-72
2022/06/21 08:45:40;;;;;;;5.90;1.83;;;;;;;18.97;51.93;100554.28;5039599;28;20029;-72
2022/06/21 08:48:02;;;;;;;6.97;2.53;;;;;;;18.95;52.44;100548.97;5039244;28;20039;-73
2022/06/21 08:50:42;;;;;;;8.27;3.05;;;;;;;18.93;52.48;100545.50;5039707;28;20043;-73
2022/06/21 08:53:36;;;;;;;7.60;1.80;;;;;;;18.96;52.68;100549.84;5041091;28;20040;-73
2022/06/21 08:56:21;;;;;;;5.82;1.77;;;;;;;19.20;51.28;100559.56;5037598;28;20056;-72
2022/06/21 08:59:11;;;;;;;7.20;2.50;;;;;;;19.51;51.57;100552.91;5040550;28;20037;-72
2022/06/21 09:01:59;;;;;;;5.40;1.83;;;;;;;19.49;51.53;100557.44;5040541;28;20045;-73
2022/06/21 09:04:48;;;;;;;7.95;2.28;;;;;;;19.16;50.62;100562.41;5041282;28;20564;-73
2022/06/21 09:07:48;;;;;;;7.43;1.88;;;;;;;19.13;51.38;100560.75;5041389;28;20033;-73
2022/06/21 09:10:42;;;;;;;6.97;1.33;;;;;;;19.43;49.70;100560.38;5038894;28;20172;-73
2022/06/21 09:13:48;;;;;;;4.95;1.42;;;;;;;19.69;49.66;100552.13;5039731;28;20464;-72
2022/06/21 09:16:22;;;;;;;5.00;1.70;;;;;;;19.90;49.61;100565.53;5037808;28;20524;-73
2022/06/21 09:19:17;;;;;;;11.38;4.25;;;;;;;20.04;48.60;100552.41;5042269;28;20403;-73
2022/06/21 09:22:07;;;;;;;5.72;2.20;;;;;;;20.46;47.26;100564.78;5042538;28;20427;-73
2022/06/21 09:24:52;;;;;;;3.85;1.55;;;;;;;19.95;47.27;100560.84;5042744;28;20044;-72
2022/06/21 09:27:44;;;;;;;5.53;1.83;;;;;;;20.29;46.22;100559.31;5041504;28;20083;-73
2022/06/21 09:30:21;;;;;;;5.00;1.70;;;;;;;20.49;46.20;100547.69;5042328;28;20044;-73
2022/06/21 09:33:01;;;;;;;4.75;1.60;;;;;;;20.17;46.19;100554.50;5037085;28;20045;-73
2022/06/21 09:36:13;;;;;;;9.38;2.35;;;;;;;19.85;47.15;100557.69;5035283;28;20063;-73
2022/06/21 09:38:45;;;;;;;7.20;2.40;;;;;;;20.07;47.63;100562.97;5021119;28;20034;-73
2022/06/21 09:41:44;;;;;;;6.38;1.50;;;;;;;20.44;46.00;100561.28;5037059;28;20053;-73
2022/06/21 09:44:21;;;;;;;7.68;1.80;;;;;;;20.81;45.10;100559.56;5020713;28;20069;-73
2022/06/21 09:47:01;;;;;;;5.30;1.58;;;;;;;21.13;43.77;100559.81;5043747;28;20037;-73
2022/06/21 09:49:42;;;;;;;7.80;2.05;;;;;;;21.31;44.25;100558.88;5043396;28;20067;-73
2022/06/21 09:52:16;;;;;;;5.88;1.58;;;;;;;20.94;44.64;100567.91;5020378;28;20041;-73
2022/06/21 09:55:02;;;;;;;5.10;2.00;;;;;;;20.82;44.66;100560.44;5043629;28;20037;-72
2022/06/21 09:57:37;;;;;;;7.22;1.45;;;;;;;20.82;44.33;100563.97;5041626;28;20085;-73
2022/06/21 10:00:08;;;;;;;6.68;1.45;;;;;;;20.83;44.06;100589.88;5038108;28;20044;-72
2022/06/21 10:02:45;;;;;;;5.57;1.50;;;;;;;20.80;43.10;100549.78;5038622;28;20492;-73
2022/06/21 10:05:13;;;;;;;5.95;1.73;;;;;;;21.29;43.01;100551.88;5037218;28;20419;-73
2022/06/21 10:08:21;;;;;;;4.93;1.40;;;;;;;21.07;42.36;100549.38;5041843;28;20122;-73
2022/06/21 10:11:09;;;;;;;4.55;1.48;;;;;;;21.14;43.99;100550.81;5043521;28;20037;-72
2022/06/21 10:13:52;;;;;;;4.28;1.27;;;;;;;21.09;42.07;100563.56;5042858;28;20045;-73
2022/06/21 10:16:26;;;;;;;5.43;1.58;;;;;;;21.07;43.16;100560.13;5042889;28;20037;-72
2022/06/21 10:19:02;;;;;;;4.65;1.45;;;;;;;21.14;42.03;100562.44;5037349;28;20120;-73
2022/06/21 10:21:51;;;;;;;7.53;1.58;;;;;;;21.27;42.95;100556.44;5040039;28;20059;-72
2022/06/21 10:24:55;;;;;;;3.92;1.48;;;;;;;21.66;42.15;100548.19;5041016;28;20032;-72
2022/06/21 10:27:53;;;;;;;7.65;1.90;;;;;;;22.02;42.03;100540.00;5037623;28;20604;-72
2022/06/21 10:30:56;;;;;;;6.40;1.63;;;;;;;21.99;40.25;100542.00;5039811;28;20052;-73
2022/06/21 10:33:41;;;;;;;6.55;1.40;;;;;;;21.81;39.51;100552.75;5037578;28;20037;-73
2022/06/21 10:36:28;;;;;;;6.80;2.03;;;;;;;21.92;39.76;100546.81;5039237;28;20365;-73
2022/06/21 10:39:06;;;;;;;7.00;1.63;;;;;;;22.28;39.20;100549.38;5039743;28;20041;-73
2022/06/21 10:45:05;;;;;;;4.32;1.20;;;;;;;21.60;42.51;100553.88;5019144;28;20456;-73
2022/06/21 10:47:52;;;;;;;7.45;1.70;;;;;;;22.19;40.28;100543.63;5036057;28;20428;-73
2022/06/21 10:50:25;;;;;;;5.75;2.03;;;;;;;22.31;40.79;100541.16;5035864;28;20037;-73
2022/06/21 10:53:14;;;;;;;8.75;1.80;;;;;;;22.27;39.36;100549.50;5040625;28;20028;-73
2022/06/21 10:57:09;;;;;;;2.78;1.30;;;;;;;21.85;40.49;100538.22;5033973;28;20105;-73
2022/06/21 10:58:53;;;;;;;6.72;2.47;;;;;;;22.34;40.25;100539.25;5041547;28;20043;-73
2022/06/21 11:01:32;;;;;;;8.25;1.90;;;;;;;22.64;39.48;100559.06;5036609;28;20044;-73
2022/06/21 11:04:16;;;;;;;6.00;1.40;;;;;;;22.47;39.79;100545.69;5035780;28;20037;-73
2022/06/21 11:07:07;;;;;;;5.60;1.50;;;;;;;22.53;38.74;100535.47;5039528;28;20112;-73
2022/06/21 11:09:46;;;;;;;3.70;1.40;;;;;;;22.77;38.96;100532.34;5039378;28;20120;-73
2022/06/21 11:15:20;;;;;;;5.35;1.17;;;;;;;22.47;39.08;100540.31;5040692;28;20056;-73
2022/06/21 11:18:04;;;;;;;8.30;1.50;;;;;;;22.38;39.71;100551.59;5038548;28;20397;-73
2022/06/21 11:20:45;;;;;;;6.82;1.52;;;;;;;22.24;38.66;100538.88;5037460;28;20053;-73
2022/06/21 11:23:43;;;;;;;5.07;1.52;;;;;;;22.19;38.90;100549.00;5038530;28;20045;-72
2022/06/21 11:26:28;;;;;;;4.68;1.15;;;;;;;22.21;38.42;100539.91;5037440;28;20061;-73
2022/06/21 11:29:12;;;;;;;4.30;1.33;;;;;;;22.32;38.16;100542.00;5035951;28;20081;-73
2022/06/21 11:32:08;;;;;;;5.13;1.30;;;;;;;22.54;38.15;100547.09;5038127;28;20037;-73
2022/06/21 11:34:51;;;;;;;3.35;1.00;;;;;;;22.25;39.40;100541.50;5036226;28;20582;-73
2022/06/21 11:37:32;;;;;;;7.18;1.40;;;;;;;21.93;39.01;100542.31;5040955;28;20045;-72
2022/06/21 11:40:16;;;;;;;4.28;1.13;;;;;;;22.52;37.77;100540.91;5038200;28;20033;-73
2022/06/21 11:42:53;;;;;;;4.68;1.23;;;;;;;22.83;37.32;100528.44;5041809;28;20030;-73
2022/06/21 11:45:49;;;;;;;5.38;1.50;;;;;;;23.55;36.32;100519.72;5042870;28;20025;-73
2022/06/21 11:48:48;;;;;;;5.28;1.73;;;;;;;23.69;35.53;100531.47;5040449;28;20037;-73
2022/06/21 11:51:25;;;;;;;5.43;1.98;;;;;;;23.86;35.06;100517.84;5042592;28;20087;-73
2022/06/21 11:54:03;;;;;;;5.00;1.50;;;;;;;24.32;34.85;100512.28;5022067;28;20037;-73
2022/06/21 11:56:38;;;;;;;5.20;1.67;;;;;;;24.38;34.52;100516.41;5045470;28;20040;-73
2022/06/21 11:59:32;;;;;;;6.55;1.50;;;;;;;24.54;34.13;100513.63;5040520;28;20033;-73
2022/06/21 12:02:34;;;;;;;5.82;2.10;;;;;;;24.78;34.12;100505.75;5039974;28;20547;-73
2022/06/21 12:05:02;;;;;;;;;;;;;;;25.41;33.17;100498.88;5045581;28;20134;-74
2022/06/21 12:07:41;;;;;;;5.63;1.45;;;;;;;25.49;32.73;100494.69;5039284;28;19913;-73
2022/06/21 12:10:26;;;;;;;4.13;1.20;;;;;;;25.80;31.26;100492.53;5043224;28;20041;-73
2022/06/21 12:13:17;;;;;;;4.55;1.30;;;;;;;26.26;31.25;100492.00;5042070;28;20182;-73
2022/06/21 12:16:16;;;;;;;5.05;1.88;;;;;;;26.24;31.31;100483.97;5043468;28;20041;-73
2022/06/21 12:18:46;;;;;;;6.28;1.70;;;;;;;26.51;31.22;100480.22;5044830;28;20033;-73
2022/06/21 12:21:20;;;;;;;4.35;1.55;;;;;;;26.97;30.28;100474.13;5042367;28;20044;-73
2022/06/21 12:23:49;;;;;;;4.65;1.73;;;;;;;26.87;30.08;100476.66;5043385;28;20315;-74
2022/06/21 12:26:24;;;;;;;4.03;1.27;;;;;;;26.41;30.85;100479.19;5045366;28;20065;-73